createdAt,value
2022-07-26T00:00:48.000Z,21.9
2022-07-26T00:05:48.512Z,21.4
2022-07-26T00:11:41.151Z,21.5
2022-07-26T00:16:48.176Z,21.6
2022-07-26T00:22:41.140Z,21.7
2022-07-26T00:27:41.144Z,21.5
2022-07-26T00:32:41.160Z,21.2
2022-07-26T00:37:48.676Z,21.3
2022-07-26T00:43:41.134Z,20.9
2022-07-26T00:48:41.233Z,20.8
2022-07-26T00:53:48.630Z,20.9
2022-07-26T00:58:48.672Z,21
2022-07-26T01:03:48.791Z,21.2
2022-07-26T01:09:41.189Z,21.2
2022-07-26T01:14:47.923Z,21.4
2022-07-26T01:19:48.802Z,20.8
2022-07-26T01:25:43.717Z,21
2022-07-26T01:30:41.179Z,21.1
2022-07-26T01:35:47.955Z,21.2
2022-07-26T01:40:48.260Z,21.3
2022-07-26T01:46:41.240Z,21.4
2022-07-26T01:51:41.184Z,21.4
2022-07-26T01:56:48.629Z,21.5
2022-07-26T02:02:41.362Z,21.5
2022-07-26T02:07:47.935Z,21.4
2022-07-26T02:12:47.975Z,21.4
2022-07-26T02:18:41.195Z,21
2022-07-26T02:23:47.976Z,21.1
2022-07-26T02:28:49.610Z,21.2
2022-07-26T02:34:41.208Z,21.2
2022-07-26T02:39:48.341Z,20.7
2022-07-26T02:44:48.681Z,20.7
2022-07-26T02:50:41.192Z,20.8
2022-07-26T02:55:47.980Z,20.7
2022-07-26T03:01:41.286Z,20.7
2022-07-26T03:06:48.688Z,20.7
2022-07-26T03:12:41.200Z,20.6
2022-07-26T03:17:41.205Z,20.6
2022-07-26T03:22:41.242Z,20.7
2022-07-26T03:27:41.224Z,20.8
2022-07-26T03:32:48.520Z,20.8
2022-07-26T03:37:53.834Z,20.7
2022-07-26T03:43:41.215Z,20.8
2022-07-26T03:48:48.698Z,20.8
2022-07-26T03:54:41.202Z,20.8
2022-07-26T03:59:41.261Z,20.8
2022-07-26T04:04:48.014Z,20.9
2022-07-26T04:10:41.214Z,21
2022-07-26T04:15:48.541Z,20.8
2022-07-26T04:21:41.196Z,21
2022-07-26T04:26:41.243Z,21.1
2022-07-26T04:31:47.989Z,21.1
2022-07-26T04:36:48.599Z,21
2022-07-26T04:42:41.245Z,21
2022-07-26T04:47:49.193Z,20.9
2022-07-26T04:52:48.110Z,21
2022-07-26T04:58:41.237Z,21.1
2022-07-26T05:03:41.260Z,21.2
2022-07-26T05:08:48.571Z,21.1
2022-07-26T05:14:41.239Z,21.3
2022-07-26T05:19:49.251Z,21.1
2022-07-26T05:25:41.227Z,21.2
2022-07-26T05:30:41.358Z,21.2
2022-07-26T05:35:48.439Z,21.2
2022-07-26T05:41:41.250Z,21.2
2022-07-26T05:46:48.021Z,21.3
2022-07-26T05:52:41.245Z,21.2
2022-07-26T05:57:49.626Z,21.2
2022-07-26T06:03:41.243Z,21.4
2022-07-26T06:08:41.371Z,21.2
2022-07-26T06:13:49.296Z,21.4
2022-07-26T06:19:47.123Z,21.5
2022-07-26T06:24:41.251Z,21.5
2022-07-26T06:29:48.011Z,21.3
2022-07-26T06:34:48.061Z,21.4
2022-07-26T06:39:48.483Z,21.5
2022-07-26T06:44:48.530Z,21.6
2022-07-26T06:50:41.271Z,22
2022-07-26T06:55:41.273Z,22.1
2022-07-26T07:00:41.434Z,21.8
2022-07-26T07:05:50.165Z,21.9
2022-07-26T07:10:48.865Z,21.8
2022-07-26T07:16:41.440Z,21.9
2022-07-26T07:21:48.330Z,22
2022-07-26T07:27:41.289Z,21.9
2022-07-26T07:32:48.043Z,22.3
2022-07-26T07:37:53.915Z,22.4
2022-07-26T07:43:41.272Z,22.7
2022-07-26T07:48:48.170Z,23
2022-07-26T07:53:56.821Z,22.9
2022-07-26T07:59:41.276Z,22.9
2022-07-26T08:04:41.445Z,23.2
2022-07-26T08:09:48.808Z,23
2022-07-26T08:15:41.280Z,22.9
2022-07-26T08:20:48.049Z,23.1
2022-07-26T08:25:56.410Z,23.9
2022-07-26T08:30:48.965Z,24.4
2022-07-26T08:36:54.851Z,25.3
2022-07-26T08:41:48.081Z,25.8
2022-07-26T08:46:48.112Z,26
2022-07-26T08:52:41.300Z,26.7
2022-07-26T08:57:48.463Z,27.4
2022-07-26T09:03:41.471Z,27.5
2022-07-26T09:08:48.323Z,27.2
2022-07-26T09:14:41.285Z,27.2
2022-07-26T09:19:41.303Z,28.1
2022-07-26T09:24:41.335Z,28
2022-07-26T09:29:48.840Z,27.6
2022-07-26T09:35:49.608Z,27
2022-07-26T09:40:41.314Z,27.1
2022-07-26T09:45:48.096Z,27.1
2022-07-26T09:51:41.323Z,27.3
2022-07-26T09:56:48.557Z,29.5
2022-07-26T10:01:48.659Z,31
2022-07-26T10:07:41.319Z,31.4
2022-07-26T10:12:41.348Z,31.9
2022-07-26T10:17:49.285Z,31.5
2022-07-26T10:23:41.332Z,31.1
2022-07-26T10:28:41.351Z,31.4
2022-07-26T10:33:48.679Z,31.1
2022-07-26T10:39:41.341Z,30.7
2022-07-26T10:44:48.125Z,30.8
2022-07-26T10:49:48.526Z,30
2022-07-26T10:55:41.333Z,29.9
2022-07-26T11:00:48.668Z,29.7
2022-07-26T11:06:41.339Z,29.5
2022-07-26T11:11:47.203Z,29
2022-07-26T11:16:41.388Z,29.2
2022-07-26T11:21:48.147Z,29.6
2022-07-26T11:27:41.332Z,29.7
2022-07-26T11:32:41.479Z,30
2022-07-26T11:37:41.373Z,29.4
2022-07-26T11:42:48.803Z,29.7
2022-07-26T11:48:41.400Z,29.7
2022-07-26T11:53:41.361Z,29.9
2022-07-26T11:58:41.407Z,29.9
2022-07-26T12:03:49.055Z,29.3
2022-07-26T12:09:41.358Z,29.5
2022-07-26T12:14:41.371Z,29.4
2022-07-26T12:19:41.398Z,28.7
2022-07-26T12:24:48.159Z,28.8
2022-07-26T12:29:48.633Z,29
2022-07-26T12:35:41.379Z,28.5
2022-07-26T12:40:41.368Z,27.5
2022-07-26T12:45:41.549Z,25.5
2022-07-26T12:50:48.729Z,24.7
2022-07-26T12:56:41.402Z,24.4
2022-07-26T13:01:41.977Z,24.2
2022-07-26T13:06:48.164Z,24.1
2022-07-26T13:12:41.392Z,24.3
2022-07-26T13:17:48.178Z,24.2
2022-07-26T13:22:48.730Z,24.6
2022-07-26T13:28:41.397Z,25.4
2022-07-26T13:33:48.153Z,25.7
2022-07-26T13:38:48.202Z,26.2
2022-07-26T13:44:41.403Z,26.6
2022-07-26T13:49:41.457Z,26.2
2022-07-26T13:54:48.180Z,26.7
2022-07-26T13:59:48.185Z,25.8
2022-07-26T14:05:41.414Z,25.8
2022-07-26T14:10:41.530Z,26.1
2022-07-26T14:15:48.237Z,26.1
2022-07-26T14:21:59.628Z,26.2
2022-07-26T14:26:48.552Z,26.2
2022-07-26T14:31:48.780Z,26.7
2022-07-26T14:36:48.935Z,27.1
2022-07-26T14:42:41.417Z,27.5
2022-07-26T14:47:41.408Z,27.6
2022-07-26T14:53:41.391Z,27.5
2022-07-26T14:58:41.400Z,27.2
2022-07-26T15:03:41.455Z,27.2
2022-07-26T15:08:41.424Z,27
2022-07-26T15:13:48.192Z,27
2022-07-26T15:18:48.315Z,26.9
2022-07-26T15:24:41.428Z,27.5
2022-07-26T15:29:41.440Z,27.6
2022-07-26T15:34:48.505Z,26.8
2022-07-26T15:39:48.944Z,26.1
2022-07-26T15:45:41.540Z,26.3
2022-07-26T15:50:48.241Z,25.9
2022-07-26T15:55:48.375Z,25.2
2022-07-26T16:00:49.031Z,25
2022-07-26T16:06:41.450Z,24.7
2022-07-26T16:11:41.483Z,24.3
2022-07-26T16:16:41.625Z,24.7
2022-07-26T16:21:49.240Z,24.3
2022-07-26T16:27:41.478Z,24.3
2022-07-26T16:32:48.235Z,24.5
2022-07-26T16:37:48.702Z,24.5
2022-07-26T16:42:49.115Z,24.2
2022-07-26T16:48:41.527Z,23.6
2022-07-26T16:53:41.453Z,23.4
2022-07-26T16:58:41.522Z,24.1
2022-07-26T17:03:51.782Z,24.1
2022-07-26T17:09:41.573Z,24.1
2022-07-26T17:14:51.824Z,23.8
2022-07-26T17:20:41.502Z,23.9
2022-07-26T17:25:41.510Z,23.5
2022-07-26T17:30:51.829Z,23.7
2022-07-26T17:36:42.950Z,23.3
2022-07-26T17:41:51.799Z,23.7
2022-07-26T17:46:51.899Z,23.3
2022-07-26T17:52:41.501Z,22.9
2022-07-26T17:57:41.523Z,22.7
2022-07-26T18:02:41.558Z,23
2022-07-26T18:07:51.834Z,23.2
2022-07-26T18:13:41.542Z,23
2022-07-26T18:18:51.820Z,23.4
2022-07-26T18:24:41.539Z,23.4
2022-07-26T18:29:51.834Z,23.1
2022-07-26T18:35:41.523Z,23.1
2022-07-26T18:40:41.563Z,23.2
2022-07-26T18:45:51.814Z,23.1
2022-07-26T18:50:51.830Z,23.2
2022-07-26T18:55:51.833Z,23
2022-07-26T19:01:41.685Z,23.1
2022-07-26T19:06:51.897Z,23.1
2022-07-26T19:12:41.556Z,23.1
2022-07-26T19:17:41.571Z,23.1
2022-07-26T19:22:41.571Z,23.1
2022-07-26T19:27:51.856Z,22.9
2022-07-26T19:33:41.561Z,23
2022-07-26T19:38:41.539Z,22.8
2022-07-26T19:43:41.575Z,22.6
2022-07-26T19:48:41.700Z,22.2
2022-07-26T19:53:41.583Z,22.3
2022-07-26T19:58:51.843Z,22.3
2022-07-26T20:04:45.722Z,22.1
2022-07-26T20:09:41.569Z,22.1
2022-07-26T20:14:41.595Z,21.6
2022-07-26T20:19:51.849Z,21.2
2022-07-26T20:24:51.868Z,21
2022-07-26T20:29:51.858Z,21.3
2022-07-26T20:35:41.580Z,21.2
2022-07-26T20:40:41.599Z,21.4
2022-07-26T20:45:41.633Z,21.4
2022-07-26T20:50:51.894Z,21.2
2022-07-26T20:56:41.586Z,21.3
2022-07-26T21:01:51.976Z,21
2022-07-26T21:07:55.927Z,21
2022-07-26T21:12:51.851Z,20.7
2022-07-26T21:17:51.885Z,20.9
2022-07-26T21:23:41.612Z,20.6
2022-07-26T21:28:51.893Z,20.6
2022-07-26T21:34:41.677Z,20.5
2022-07-26T21:39:41.595Z,20.6
2022-07-26T21:44:51.905Z,20.7
2022-07-26T21:50:41.577Z,20.6
2022-07-26T21:55:41.616Z,20.8
2022-07-26T22:00:51.945Z,20.6
2022-07-26T22:05:51.877Z,20.6
2022-07-26T22:10:51.894Z,20.7
2022-07-26T22:16:41.738Z,20.4
2022-07-26T22:21:51.893Z,20.4
2022-07-26T22:26:51.913Z,20.4
2022-07-26T22:32:41.616Z,19.9
2022-07-26T22:37:41.634Z,20.1
2022-07-26T22:42:41.628Z,20.3
2022-07-26T22:47:56.442Z,20.2
2022-07-26T22:53:41.626Z,20.4
2022-07-26T22:58:51.935Z,20.4
2022-07-26T23:04:41.632Z,20.1
2022-07-26T23:09:51.897Z,20.2
2022-07-26T23:15:41.620Z,20.3
2022-07-26T23:20:41.625Z,20.3
2022-07-26T23:25:41.614Z,19.8
2022-07-26T23:30:41.652Z,20
2022-07-26T23:35:51.886Z,20
2022-07-26T23:40:51.912Z,19.9
2022-07-26T23:46:41.699Z,20
2022-07-26T23:51:41.635Z,19.6
2022-07-26T23:56:51.905Z,19.7
